Time;durP1;ratioP1;P1;durP2;ratioP2;P2;SDS_P1;SDS_P2;PMS_P1;PMS_P2;Temp;Humidity;BMP_temperature;BMP_pressure;BME280_temperature;BME280_humidity;BME280_pressure;Samples;Min_cycle;Max_cycle;Signal;HPM_P1;HPM_P2
2021/12/28 00:01:03;;;;;;;6.23;4.70;;;;;;;;;;5033561;28;20507;-65
2021/12/28 00:03:29;;;;;;;8.03;5.83;;;;;;;;;;5033240;28;20426;-64
2021/12/28 00:05:55;;;;;;;7.03;5.50;;;;;;;;;;5033609;28;20831;-65
2021/12/28 00:08:22;;;;;;;5.67;4.37;;;;;;;;;;5033241;28;20409;-64
2021/12/28 00:10:48;;;;;;;5.17;4.67;;;;;;;;;;5033608;28;20439;-64
2021/12/28 00:13:16;;;;;;;5.00;3.60;;;;;;;;;;5033142;28;20518;-65
2021/12/28 00:18:15;;;;;;;5.70;4.40;;;;;;;;;;5032758;28;20403;-64
2021/12/28 00:20:43;;;;;;;4.43;3.60;;;;;;;;;;5033395;28;20406;-64
2021/12/28 00:23:14;;;;;;;5.40;3.57;;;;;;;;;;5033223;28;20429;-64
2021/12/28 00:25:41;;;;;;;4.60;3.90;;;;;;;;;;5033486;28;20474;-64
2021/12/28 00:28:07;;;;;;;4.40;3.53;;;;;;;;;;5033280;28;20944;-64
2021/12/28 00:30:33;;;;;;;4.50;3.70;;;;;;;;;;5033208;28;20442;-64
2021/12/28 00:32:59;;;;;;;5.10;3.30;;;;;;;;;;5033130;28;20443;-64
2021/12/28 00:35:27;;;;;;;4.20;3.50;;;;;;;;;;5033073;28;20430;-64
2021/12/28 00:37:54;;;;;;;4.33;3.40;;;;;;;;;;5033372;28;20481;-64
2021/12/28 00:40:20;;;;;;;4.50;3.63;;;;;;;;;;5033099;28;20406;-63
2021/12/28 00:42:46;;;;;;;3.60;3.00;;;;;;;;;;5032990;28;20427;-64
2021/12/28 00:45:12;;;;;;;6.73;4.30;;;;;;;;;;5033083;28;20755;-63
2021/12/28 00:47:39;;;;;;;4.07;3.33;;;;;;;;;;5033294;28;20399;-64
2021/12/28 00:50:05;;;;;;;4.40;3.40;;;;;;;;;;5033386;28;20457;-64
2021/12/28 00:52:31;;;;;;;3.93;2.90;;;;;;;;;;5033013;28;20473;-64
2021/12/28 00:54:57;;;;;;;5.00;3.50;;;;;;;;;;5033142;28;20880;-64
2021/12/28 00:57:23;;;;;;;5.17;2.83;;;;;;;;;;5033052;28;20403;-64
2021/12/28 00:59:49;;;;;;;4.00;2.73;;;;;;;;;;5033114;28;20430;-64
2021/12/28 01:02:15;;;;;;;4.20;2.63;;;;;;;;;;5034392;28;20429;-64
2021/12/28 01:04:41;;;;;;;3.40;2.30;;;;;;;;;;5034208;28;20457;-64
2021/12/28 01:07:07;;;;;;;3.67;2.97;;;;;;;;;;5038025;28;20426;-65
2021/12/28 01:09:34;;;;;;;3.77;3.23;;;;;;;;;;5033040;28;20450;-64
2021/12/28 01:12:00;;;;;;;7.07;3.13;;;;;;;;;;5033290;28;20462;-64
2021/12/28 01:14:28;;;;;;;6.73;3.83;;;;;;;;;;5032790;28;20394;-64
2021/12/28 01:16:54;;;;;;;3.43;2.43;;;;;;;;;;5031474;28;20403;-64
2021/12/28 01:19:20;;;;;;;6.50;2.50;;;;;;;;;;5033028;28;20415;-65
2021/12/28 01:21:46;;;;;;;3.60;2.80;;;;;;;;;;5032549;28;20426;-64
2021/12/28 01:24:12;;;;;;;6.73;3.50;;;;;;;;;;5032735;28;20439;-64
2021/12/28 01:26:39;;;;;;;6.27;3.80;;;;;;;;;;5032680;28;20405;-62
2021/12/28 01:29:05;;;;;;;5.90;3.83;;;;;;;;;;5035020;28;20512;-64
2021/12/28 01:31:31;;;;;;;5.27;3.80;;;;;;;;;;5036293;28;20410;-64
2021/12/28 01:33:57;;;;;;;4.20;3.50;;;;;;;;;;5036228;28;20430;-63
2021/12/28 01:36:23;;;;;;;5.57;3.50;;;;;;;;;;5036149;28;20403;-64
2021/12/28 01:38:49;;;;;;;4.60;3.57;;;;;;;;;;5036270;28;20407;-64
2021/12/28 01:41:15;;;;;;;3.83;3.43;;;;;;;;;;5036428;28;20489;-64
2021/12/28 01:43:43;;;;;;;4.07;3.60;;;;;;;;;;5037058;28;20422;-64
2021/12/28 01:46:09;;;;;;;5.17;3.87;;;;;;;;;;5036384;28;20442;-64
2021/12/28 01:48:37;;;;;;;5.53;4.23;;;;;;;;;;5036164;28;20442;-64
2021/12/28 01:51:05;;;;;;;5.20;3.70;;;;;;;;;;5035863;28;20446;-64
2021/12/28 01:53:32;;;;;;;4.80;3.93;;;;;;;;;;5035939;28;20426;-64
2021/12/28 01:56:03;;;;;;;4.80;3.90;;;;;;;;;;5035779;28;20463;-63
2021/12/28 01:58:29;;;;;;;6.03;4.10;;;;;;;;;;5035698;28;20525;-63
2021/12/28 02:00:56;;;;;;;4.17;3.03;;;;;;;;;;5035624;28;20414;-64
2021/12/28 02:03:23;;;;;;;4.00;3.33;;;;;;;;;;5035804;28;20437;-64
2021/12/28 02:05:50;;;;;;;5.27;3.67;;;;;;;;;;5035573;28;20403;-63
2021/12/28 02:08:17;;;;;;;4.40;3.80;;;;;;;;;;5035582;28;20415;-63
2021/12/28 02:10:44;;;;;;;5.70;3.60;;;;;;;;;;5034213;28;20983;-64
2021/12/28 02:13:10;;;;;;;5.53;4.10;;;;;;;;;;5035231;28;20427;-63
2021/12/28 02:15:37;;;;;;;4.50;3.70;;;;;;;;;;5035369;28;20410;-63
2021/12/28 02:18:04;;;;;;;6.67;4.00;;;;;;;;;;5035463;28;20403;-63
2021/12/28 02:20:30;;;;;;;6.10;4.60;;;;;;;;;;5035548;28;20411;-64
2021/12/28 02:22:56;;;;;;;5.30;3.50;;;;;;;;;;5035110;28;20415;-65
2021/12/28 02:25:22;;;;;;;5.73;4.00;;;;;;;;;;5035212;28;20410;-63
2021/12/28 02:27:48;;;;;;;5.70;3.30;;;;;;;;;;5035037;28;20513;-64
2021/12/28 02:30:16;;;;;;;6.90;4.10;;;;;;;;;;5035045;28;20445;-64
2021/12/28 02:32:43;;;;;;;4.03;3.60;;;;;;;;;;5035096;28;20505;-63
2021/12/28 02:35:11;;;;;;;5.43;3.67;;;;;;;;;;5033730;28;20406;-63
2021/12/28 02:37:37;;;;;;;6.33;4.13;;;;;;;;;;5034872;28;20904;-63
2021/12/28 02:40:07;;;;;;;5.60;3.93;;;;;;;;;;5032698;28;20753;-64
2021/12/28 02:42:33;;;;;;;5.30;4.00;;;;;;;;;;5034900;28;20517;-64
2021/12/28 02:45:02;;;;;;;4.63;4.00;;;;;;;;;;5034910;28;20406;-65
2021/12/28 02:47:31;;;;;;;5.97;4.13;;;;;;;;;;5035111;28;20464;-64
2021/12/28 02:49:57;;;;;;;6.13;4.10;;;;;;;;;;5028184;28;20459;-64
2021/12/28 02:52:23;;;;;;;5.67;4.50;;;;;;;;;;5015032;28;20431;-65
2021/12/28 02:54:49;;;;;;;6.43;3.63;;;;;;;;;;5014926;28;20892;-64
2021/12/28 02:57:15;;;;;;;10.63;3.93;;;;;;;;;;5015257;28;20403;-64
2021/12/28 02:59:48;;;;;;;5.57;3.63;;;;;;;;;;5015296;28;20412;-65
2021/12/28 03:02:14;;;;;;;4.23;3.07;;;;;;;;;;5015089;28;20427;-65
2021/12/28 03:04:40;;;;;;;3.77;3.00;;;;;;;;;;5014700;28;20477;-63
2021/12/28 03:07:07;;;;;;;4.47;3.20;;;;;;;;;;5014583;28;20416;-63
2021/12/28 03:09:33;;;;;;;3.07;2.60;;;;;;;;;;5014647;28;20451;-64
2021/12/28 03:11:59;;;;;;;4.43;3.00;;;;;;;;;;5014656;28;20485;-64
2021/12/28 03:14:25;;;;;;;4.13;3.00;;;;;;;;;;5014660;28;20404;-65
2021/12/28 03:16:51;;;;;;;5.10;2.83;;;;;;;;;;5014512;28;20449;-63
2021/12/28 03:19:17;;;;;;;5.83;3.93;;;;;;;;;;5014380;28;20447;-63
2021/12/28 03:21:43;;;;;;;4.50;2.60;;;;;;;;;;5014387;28;20412;-64
2021/12/28 03:24:09;;;;;;;3.23;2.60;;;;;;;;;;5014530;28;20403;-63
2021/12/28 03:26:36;;;;;;;2.93;2.60;;;;;;;;;;5014454;28;20483;-63
2021/12/28 03:29:03;;;;;;;3.13;2.40;;;;;;;;;;5014159;28;20427;-65
2021/12/28 03:31:29;;;;;;;5.30;2.80;;;;;;;;;;5012859;28;20983;-64
2021/12/28 03:33:55;;;;;;;3.83;2.67;;;;;;;;;;5014329;28;20420;-63
2021/12/28 03:36:22;;;;;;;3.67;2.47;;;;;;;;;;5014037;28;20454;-63
2021/12/28 03:38:49;;;;;;;2.93;2.23;;;;;;;;;;5014077;28;20400;-63
2021/12/28 03:41:17;;;;;;;4.57;2.20;;;;;;;;;;5014060;28;20881;-65
2021/12/28 03:43:44;;;;;;;3.73;2.40;;;;;;;;;;5014212;28;20829;-63
2021/12/28 03:46:11;;;;;;;8.30;3.00;;;;;;;;;;5014344;28;20411;-63
2021/12/28 03:48:37;;;;;;;7.00;2.93;;;;;;;;;;5013933;28;20520;-65
2021/12/28 03:51:03;;;;;;;4.30;2.70;;;;;;;;;;5013978;28;20451;-64
2021/12/28 03:53:29;;;;;;;4.27;2.60;;;;;;;;;;5013891;28;20464;-63
2021/12/28 03:55:55;;;;;;;3.10;2.43;;;;;;;;;;5013918;28;20495;-64
2021/12/28 03:58:21;;;;;;;3.63;2.23;;;;;;;;;;5013858;28;20406;-63
2021/12/28 04:00:49;;;;;;;2.00;1.70;;;;;;;;;;5013846;28;20456;-63
2021/12/28 04:03:15;;;;;;;2.77;2.30;;;;;;;;;;5013743;28;20511;-64
2021/12/28 04:05:44;;;;;;;3.93;2.40;;;;;;;;;;5014041;28;20749;-63
2021/12/28 04:08:10;;;;;;;4.60;2.40;;;;;;;;;;5013709;28;20416;-63
2021/12/28 04:10:51;;;;;;;2.73;1.93;;;;;;;;;;5013833;28;20819;-63
2021/12/28 04:13:18;;;;;;;8.10;2.23;;;;;;;;;;5014031;28;20427;-63
2021/12/28 04:15:44;;;;;;;3.47;2.97;;;;;;;;;;5012362;28;20443;-63
2021/12/28 04:18:10;;;;;;;5.47;2.77;;;;;;;;;;5013602;28;20754;-63
2021/12/28 04:20:36;;;;;;;5.23;2.60;;;;;;;;;;5014271;28;20427;-65
2021/12/28 04:23:03;;;;;;;5.13;2.37;;;;;;;;;;5021175;28;20437;-64
2021/12/28 04:25:30;;;;;;;13.10;2.60;;;;;;;;;;5013564;28;20410;-63
2021/12/28 04:27:56;;;;;;;2.37;1.50;;;;;;;;;;5013550;28;20813;-65
2021/12/28 04:30:22;;;;;;;3.90;1.80;;;;;;;;;;5013586;28;20789;-64
2021/12/28 04:32:48;;;;;;;3.77;2.00;;;;;;;;;;5013283;28;20416;-63
2021/12/28 04:35:16;;;;;;;5.20;2.30;;;;;;;;;;5013658;28;20399;-63
2021/12/28 04:37:42;;;;;;;2.70;1.90;;;;;;;;;;5013569;28;20404;-63
2021/12/28 04:40:10;;;;;;;4.33;1.87;;;;;;;;;;5013336;28;20410;-63
2021/12/28 04:42:36;;;;;;;2.60;1.70;;;;;;;;;;5013475;28;20438;-63
2021/12/28 04:45:03;;;;;;;4.17;2.10;;;;;;;;;;5013182;28;20411;-65
2021/12/28 04:47:29;;;;;;;3.30;2.00;;;;;;;;;;5013184;28;20414;-64
2021/12/28 04:49:55;;;;;;;2.27;1.70;;;;;;;;;;5013143;28;20460;-63
2021/12/28 04:52:21;;;;;;;4.00;1.80;;;;;;;;;;5013419;28;20865;-64
2021/12/28 04:54:47;;;;;;;4.60;1.80;;;;;;;;;;5013175;28;20400;-63
2021/12/28 04:57:13;;;;;;;2.57;1.90;;;;;;;;;;5013110;28;20402;-65
2021/12/28 04:59:39;;;;;;;2.30;1.63;;;;;;;;;;5026527;28;20976;-63
2021/12/28 05:02:05;;;;;;;5.27;2.67;;;;;;;;;;5012980;28;20427;-63
2021/12/28 05:04:31;;;;;;;5.00;2.30;;;;;;;;;;5016765;28;20888;-63
2021/12/28 05:06:57;;;;;;;5.00;2.20;;;;;;;;;;5016823;28;20422;-65
2021/12/28 05:09:23;;;;;;;4.77;2.40;;;;;;;;;;5017050;28;20411;-63
2021/12/28 05:11:50;;;;;;;6.53;2.07;;;;;;;;;;5016751;28;20404;-65
2021/12/28 05:14:18;;;;;;;6.20;2.27;;;;;;;;;;5017217;28;20483;-64
2021/12/28 05:16:44;;;;;;;3.07;1.70;;;;;;;;;;5016969;28;20404;-63
2021/12/28 05:19:11;;;;;;;5.50;2.00;;;;;;;;;;5016909;28;20431;-63
2021/12/28 05:21:37;;;;;;;4.67;2.63;;;;;;;;;;5016629;28;20400;-65
2021/12/28 05:24:04;;;;;;;5.80;2.80;;;;;;;;;;5016621;28;20406;-64
2021/12/28 05:26:30;;;;;;;2.67;1.93;;;;;;;;;;5016607;28;20893;-63
2021/12/28 05:28:56;;;;;;;3.33;2.03;;;;;;;;;;5016493;28;20493;-65
2021/12/28 05:31:25;;;;;;;2.97;2.10;;;;;;;;;;5016647;28;20454;-64
2021/12/28 05:33:52;;;;;;;4.43;2.30;;;;;;;;;;5016439;28;20422;-64
2021/12/28 05:36:18;;;;;;;2.93;2.00;;;;;;;;;;5016346;28;20414;-65
2021/12/28 05:38:44;;;;;;;3.73;1.97;;;;;;;;;;5016599;28;20490;-63
2021/12/28 05:41:10;;;;;;;2.90;1.80;;;;;;;;;;5016508;28;20411;-64
2021/12/28 05:43:36;;;;;;;3.40;2.00;;;;;;;;;;5016153;28;20628;-64
2021/12/28 05:46:02;;;;;;;3.00;1.60;;;;;;;;;;5016218;28;20404;-64
2021/12/28 05:48:28;;;;;;;3.60;1.63;;;;;;;;;;5016366;28;20418;-65
2021/12/28 05:50:55;;;;;;;3.50;2.10;;;;;;;;;;5015957;28;20546;-64
2021/12/28 05:53:21;;;;;;;3.40;1.80;;;;;;;;;;5016258;28;20423;-63
2021/12/28 05:55:47;;;;;;;4.80;2.23;;;;;;;;;;5016079;28;20400;-63
2021/12/28 05:58:13;;;;;;;7.50;2.17;;;;;;;;;;5015954;28;20435;-64
2021/12/28 06:00:39;;;;;;;5.73;1.70;;;;;;;;;;5015859;28;20418;-63
2021/12/28 06:03:05;;;;;;;3.30;2.10;;;;;;;;;;5015847;28;20434;-65
2021/12/28 06:05:31;;;;;;;4.93;1.80;;;;;;;;;;5016060;28;20414;-64
2021/12/28 06:07:57;;;;;;;2.40;1.67;;;;;;;;;;5015739;28;20404;-63
2021/12/28 06:10:23;;;;;;;2.67;1.67;;;;;;;;;;5015910;28;20455;-63
2021/12/28 06:12:49;;;;;;;3.67;1.70;;;;;;;;;;5015842;28;20431;-63
2021/12/28 06:15:16;;;;;;;6.50;2.80;;;;;;;;;;5014206;28;20499;-64
2021/12/28 06:17:42;;;;;;;3.03;1.73;;;;;;;;;;5015826;28;20801;-63
2021/12/28 06:20:08;;;;;;;3.20;2.27;;;;;;;;;;5015782;28;20408;-63
2021/12/28 06:22:35;;;;;;;4.77;2.43;;;;;;;;;;5015677;28;20427;-63
2021/12/28 06:25:01;;;;;;;3.87;1.90;;;;;;;;;;5015821;28;20812;-63
2021/12/28 06:27:27;;;;;;;3.40;2.10;;;;;;;;;;5015343;28;20411;-64
2021/12/28 06:29:53;;;;;;;2.10;1.60;;;;;;;;;;5015308;28;20470;-63
2021/12/28 06:32:19;;;;;;;1.73;1.33;;;;;;;;;;5015455;28;20415;-63
2021/12/28 06:34:45;;;;;;;3.60;1.53;;;;;;;;;;5015546;28;20748;-63
2021/12/28 06:37:11;;;;;;;3.60;1.43;;;;;;;;;;5013981;28;20494;-64
2021/12/28 06:39:37;;;;;;;2.23;1.60;;;;;;;;;;5015363;28;20414;-63
2021/12/28 06:42:04;;;;;;;3.20;1.50;;;;;;;;;;5015462;28;20423;-64
2021/12/28 06:44:30;;;;;;;3.90;1.63;;;;;;;;;;5015216;28;20400;-64
2021/12/28 06:46:56;;;;;;;2.80;1.37;;;;;;;;;;5015405;28;20404;-65
2021/12/28 06:49:22;;;;;;;2.80;1.63;;;;;;;;;;5015010;28;20408;-63
2021/12/28 06:51:48;;;;;;;2.17;1.40;;;;;;;;;;5015104;28;20408;-64
2021/12/28 06:54:15;;;;;;;3.63;1.40;;;;;;;;;;5015138;28;20465;-65
2021/12/28 06:56:41;;;;;;;4.10;2.00;;;;;;;;;;5014888;28;20402;-65
2021/12/28 06:59:07;;;;;;;4.37;2.50;;;;;;;;;;5014983;28;20753;-63
2021/12/28 07:01:33;;;;;;;4.73;1.97;;;;;;;;;;5014785;28;20412;-63
2021/12/28 07:03:59;;;;;;;3.70;2.30;;;;;;;;;;5014874;28;20901;-63
2021/12/28 07:06:26;;;;;;;2.50;1.80;;;;;;;;;;5014818;28;20408;-63
2021/12/28 07:08:53;;;;;;;9.10;2.07;;;;;;;;;;5014634;28;20909;-63
2021/12/28 07:11:19;;;;;;;5.40;2.40;;;;;;;;;;5014744;28;20545;-65
2021/12/28 07:13:45;;;;;;;4.33;1.50;;;;;;;;;;5014506;28;20788;-63
2021/12/28 07:16:12;;;;;;;3.50;2.10;;;;;;;;;;5013331;28;20428;-63
2021/12/28 07:18:38;;;;;;;2.60;1.83;;;;;;;;;;5014684;28;20408;-65
2021/12/28 07:21:04;;;;;;;4.23;2.20;;;;;;;;;;5014335;28;20408;-66
2021/12/28 07:23:30;;;;;;;4.60;2.07;;;;;;;;;;5014277;28;20936;-64
2021/12/28 07:25:56;;;;;;;3.77;2.10;;;;;;;;;;5014186;28;20403;-63
2021/12/28 07:28:23;;;;;;;3.40;1.70;;;;;;;;;;5014333;28;20442;-63
2021/12/28 07:30:50;;;;;;;4.13;2.40;;;;;;;;;;5014200;28;20458;-63
2021/12/28 07:33:16;;;;;;;2.77;1.73;;;;;;;;;;5014386;28;20451;-64
2021/12/28 07:35:42;;;;;;;3.20;1.77;;;;;;;;;;5014360;28;20404;-63
2021/12/28 07:38:08;;;;;;;2.20;1.80;;;;;;;;;;5014141;28;20901;-62
2021/12/28 07:40:34;;;;;;;3.40;2.20;;;;;;;;;;5014051;28;20403;-63
2021/12/28 07:43:00;;;;;;;4.10;2.43;;;;;;;;;;5013977;28;20505;-65
2021/12/28 07:45:27;;;;;;;3.93;2.17;;;;;;;;;;5012802;28;20486;-63
2021/12/28 07:47:53;;;;;;;6.37;1.70;;;;;;;;;;5013965;28;20494;-65
2021/12/28 07:50:19;;;;;;;3.60;1.47;;;;;;;;;;5013949;28;20450;-63
2021/12/28 07:52:46;;;;;;;3.03;1.83;;;;;;;;;;5013740;28;20428;-63
2021/12/28 07:55:12;;;;;;;2.83;2.00;;;;;;;;;;5014142;28;20758;-65
2021/12/28 07:57:39;;;;;;;5.60;1.97;;;;;;;;;;5013788;28;20415;-64
2021/12/28 08:00:07;;;;;;;4.73;2.20;;;;;;;;;;5014175;28;20435;-63
2021/12/28 08:02:33;;;;;;;4.27;1.80;;;;;;;;;;5012425;28;20498;-63
2021/12/28 08:04:59;;;;;;;2.20;1.83;;;;;;;;;;5013787;28;20462;-63
2021/12/28 08:07:25;;;;;;;2.23;1.70;;;;;;;;;;5014010;28;20475;-63
2021/12/28 08:09:51;;;;;;;4.93;1.97;;;;;;;;;;5025904;28;20501;-63
2021/12/28 08:12:17;;;;;;;2.90;2.37;;;;;;;;;;5029906;28;20525;-62
2021/12/28 08:14:43;;;;;;;2.90;2.30;;;;;;;;;;5032567;28;20403;-65
2021/12/28 08:17:09;;;;;;;6.33;2.10;;;;;;;;;;5032284;28;20778;-65
2021/12/28 08:19:37;;;;;;;3.83;1.83;;;;;;;;;;5033161;28;20430;-64
2021/12/28 08:22:03;;;;;;;5.30;2.30;;;;;;;;;;5032900;28;20495;-64
2021/12/28 08:24:29;;;;;;;4.50;2.70;;;;;;;;;;5032953;28;20419;-64
2021/12/28 08:26:56;;;;;;;5.20;2.37;;;;;;;;;;5030468;28;20561;-68
2021/12/28 08:29:22;;;;;;;2.77;1.80;;;;;;;;;;5031071;28;20568;-69
2021/12/28 08:31:48;;;;;;;5.83;2.07;;;;;;;;;;5033034;28;20440;-67
2021/12/28 08:34:14;;;;;;;3.10;2.27;;;;;;;;;;5032423;28;20742;-68
2021/12/28 08:36:40;;;;;;;5.57;2.67;;;;;;;;;;5031805;28;20422;-63
2021/12/28 08:39:06;;;;;;;3.50;2.40;;;;;;;;;;5031864;28;20436;-63
2021/12/28 08:41:32;;;;;;;3.00;1.97;;;;;;;;;;5032356;28;20419;-62
2021/12/28 08:43:58;;;;;;;4.37;2.53;;;;;;;;;;5028243;28;20442;-64
2021/12/28 08:46:24;;;;;;;5.80;2.23;;;;;;;;;;5026523;28;20505;-62
2021/12/28 08:48:51;;;;;;;3.80;2.63;;;;;;;;;;5026047;28;20461;-63
2021/12/28 08:51:17;;;;;;;3.03;2.00;;;;;;;;;;5025025;28;20537;-62
2021/12/28 08:53:43;;;;;;;5.17;1.83;;;;;;;;;;5027005;28;20515;-55
2021/12/28 08:56:09;;;;;;;3.30;1.83;;;;;;;;;;5028475;28;20419;-58
2021/12/28 08:58:35;;;;;;;3.92;2.35;;;;;;;;;;5031660;28;20369;-64
2021/12/28 09:01:02;;;;;;;5.63;1.93;;;;;;;;;;5032233;28;20271;-64
2021/12/28 09:03:28;;;;;;;2.97;2.13;;;;;;;;;;5032237;28;20431;-63
2021/12/28 09:05:54;;;;;;;2.73;1.83;;;;;;;;;;5031828;28;20410;-63
2021/12/28 09:08:20;;;;;;;2.73;1.60;;;;;;;;;;5030979;28;20411;-62
2021/12/28 09:10:48;;;;;;;5.83;2.00;;;;;;;;;;5025698;28;20453;-62
2021/12/28 09:13:14;;;;;;;4.33;1.83;;;;;;;;;;5047765;28;20593;-61
2021/12/28 09:15:41;;;;;;;2.43;1.60;;;;;;;;;;5048533;28;20418;-63
2021/12/28 09:18:07;;;;;;;5.13;2.00;;;;;;;;;;5038513;28;20415;-62
2021/12/28 09:20:34;;;;;;;4.43;1.97;;;;;;;;;;5032102;28;20422;-65
2021/12/28 09:23:00;;;;;;;3.47;2.33;;;;;;;;;;5032606;28;20430;-62
2021/12/28 09:25:26;;;;;;;9.53;2.37;;;;;;;;;;5032046;28;20418;-65
2021/12/28 09:27:53;;;;;;;6.83;2.13;;;;;;;;;;5032494;28;20423;-64
2021/12/28 09:30:19;;;;;;;6.43;2.60;;;;;;;;;;5032375;28;20442;-66
2021/12/28 09:32:45;;;;;;;4.13;2.40;;;;;;;;;;5033004;28;20418;-66
2021/12/28 09:35:12;;;;;;;3.03;1.73;;;;;;;;;;5030907;28;20426;-66
2021/12/28 09:37:38;;;;;;;3.50;1.90;;;;;;;;;;5032607;28;20419;-65
2021/12/28 09:40:06;;;;;;;8.13;2.70;;;;;;;;;;5032605;28;20464;-66
2021/12/28 09:42:32;;;;;;;5.00;2.10;;;;;;;;;;5032110;28;20437;-60
2021/12/28 09:44:58;;;;;;;4.25;2.10;;;;;;;;;;5030995;28;20417;-66
2021/12/28 09:47:24;;;;;;;5.25;2.40;;;;;;;;;;5031854;28;20887;-64
2021/12/28 09:49:50;;;;;;;3.40;2.50;;;;;;;;;;5034365;28;20196;-61
2021/12/28 09:52:17;;;;;;;4.77;2.80;;;;;;;;;;5035913;28;20439;-61
2021/12/28 09:54:43;;;;;;;3.40;2.37;;;;;;;;;;5035773;28;20429;-61
2021/12/28 09:57:09;;;;;;;4.70;2.30;;;;;;;;;;5034944;28;20420;-67
2021/12/28 09:59:37;;;;;;;10.50;4.00;;;;;;;;;;5035489;28;20418;-65
2021/12/28 10:02:09;;;;;;;6.60;3.43;;;;;;;;;;5035329;28;20965;-65
2021/12/28 10:04:35;;;;;;;3.57;2.40;;;;;;;;;;5035817;28;20402;-61
2021/12/28 10:07:18;;;;;;;3.73;2.37;;;;;;;;;;5035516;28;20468;-63
2021/12/28 10:09:44;;;;;;;4.30;1.90;;;;;;;;;;5029219;28;20567;-67
2021/12/28 10:12:10;;;;;;;3.47;1.90;;;;;;;;;;5035263;28;20691;-67
2021/12/28 10:14:37;;;;;;;3.53;2.13;;;;;;;;;;5028285;28;20418;-64
2021/12/28 10:17:04;;;;;;;4.70;2.20;;;;;;;;;;5034249;28;20406;-62
2021/12/28 10:19:44;;;;;;;4.45;2.30;;;;;;;;;;5034858;28;20416;-66
2021/12/28 10:22:19;;;;;;;4.03;2.30;;;;;;;;;;5035833;28;20187;-65
2021/12/28 10:24:46;;;;;;;4.27;2.60;;;;;;;;;;5037628;28;20434;-63
2021/12/28 10:27:13;;;;;;;5.97;2.87;;;;;;;;;;5033697;28;20448;-61
2021/12/28 10:29:39;;;;;;;3.73;2.17;;;;;;;;;;5034714;28;20898;-65
2021/12/28 10:32:20;;;;;;;3.63;2.30;;;;;;;;;;5034793;28;20863;-61
2021/12/28 10:34:52;;;;;;;10.75;4.13;;;;;;;;;;5033706;28;20409;-64
2021/12/28 10:37:18;;;;;;;16.17;5.63;;;;;;;;;;5035101;28;20182;-66
2021/12/28 10:39:46;;;;;;;12.47;5.70;;;;;;;;;;5034632;28;20411;-62
2021/12/28 10:42:32;;;;;;;5.40;3.43;;;;;;;;;;5034860;28;20438;-62
2021/12/28 10:45:01;;;;;;;3.90;1.90;;;;;;;;;;5033381;28;20804;-62
2021/12/28 10:47:27;;;;;;;4.67;3.00;;;;;;;;;;5034323;28;20526;-63
2021/12/28 10:49:54;;;;;;;4.33;2.50;;;;;;;;;;5034146;28;20508;-65
2021/12/28 10:52:37;;;;;;;3.97;2.33;;;;;;;;;;5033228;28;20431;-64
2021/12/28 10:55:23;;;;;;;2.80;1.93;;;;;;;;;;5032547;28;20406;-63
2021/12/28 10:57:49;;;;;;;2.00;1.60;;;;;;;;;;5034462;28;20410;-61
2021/12/28 11:00:25;;;;;;;3.57;1.83;;;;;;;;;;5033780;28;20524;-58
2021/12/28 11:02:51;;;;;;;4.10;2.10;;;;;;;;;;5034570;28;20782;-58
2021/12/28 11:05:31;;;;;;;2.80;1.52;;;;;;;;;;5033047;28;20417;-62
2021/12/28 11:07:57;;;;;;;2.57;1.90;;;;;;;;;;5033930;28;20274;-62
2021/12/28 11:10:27;;;;;;;3.80;2.20;;;;;;;;;;5038931;28;20433;-62
2021/12/28 11:12:54;;;;;;;2.57;1.50;;;;;;;;;;5035144;28;20427;-63
2021/12/28 11:15:24;;;;;;;2.43;1.60;;;;;;;;;;5033213;28;20403;-63
2021/12/28 11:17:50;;;;;;;2.30;1.50;;;;;;;;;;5034111;28;20415;-63
2021/12/28 11:20:17;;;;;;;2.83;1.60;;;;;;;;;;5034668;28;20403;-63
2021/12/28 11:23:03;;;;;;;3.30;1.60;;;;;;;;;;5034318;28;20434;-63
2021/12/28 11:25:30;;;;;;;3.57;1.63;;;;;;;;;;5024448;28;20488;-63
2021/12/28 11:28:31;;;;;;;2.00;1.60;;;;;;;;;;5034104;28;20431;-63
2021/12/28 11:31:01;;;;;;;2.20;1.53;;;;;;;;;;4992898;28;20471;-63
2021/12/28 11:33:27;;;;;;;2.63;1.70;;;;;;;;;;5026339;28;20857;-62
2021/12/28 11:35:53;;;;;;;3.77;1.70;;;;;;;;;;5034305;28;20402;-63
2021/12/28 11:38:20;;;;;;;2.80;1.33;;;;;;;;;;5033815;28;20416;-63
2021/12/28 11:40:46;;;;;;;3.17;2.30;;;;;;;;;;5034051;28;20426;-63
2021/12/28 11:43:12;;;;;;;3.00;2.00;;;;;;;;;;5033361;28;20479;-64
2021/12/28 11:45:38;;;;;;;5.97;1.73;;;;;;;;;;5033854;28;20947;-64
2021/12/28 11:48:04;;;;;;;2.13;1.50;;;;;;;;;;5033395;28;20425;-63
2021/12/28 11:50:30;;;;;;;3.60;1.53;;;;;;;;;;5033670;28;20446;-62
2021/12/28 11:52:57;;;;;;;2.10;1.70;;;;;;;;;;5033116;28;20476;-65
2021/12/28 11:55:23;;;;;;;2.97;2.00;;;;;;;;;;5033979;28;20399;-63
2021/12/28 11:57:51;;;;;;;4.50;1.97;;;;;;;;;;5032906;28;20399;-62
2021/12/28 12:00:19;;;;;;;3.30;1.70;;;;;;;;;;5033599;28;20751;-63
2021/12/28 12:02:49;;;;;;;2.57;1.97;;;;;;;;;;5033419;28;20426;-64
2021/12/28 12:05:24;;;;;;;3.87;2.30;;;;;;;;;;5032868;28;20407;-64
2021/12/28 12:08:05;;;;;;;3.60;2.13;;;;;;;;;;5033544;28;20425;-64
2021/12/28 12:10:32;;;;;;;2.70;2.00;;;;;;;;;;5033298;28;20901;-63
2021/12/28 12:13:00;;;;;;;3.90;2.23;;;;;;;;;;5033099;28;20418;-64
2021/12/28 12:15:27;;;;;;;4.00;1.80;;;;;;;;;;5031762;28;20773;-64
2021/12/28 12:17:57;;;;;;;4.10;2.10;;;;;;;;;;5031856;28;20895;-63
2021/12/28 12:20:27;;;;;;;2.53;1.97;;;;;;;;;;5032946;28;20529;-61
2021/12/28 12:23:08;;;;;;;3.50;2.40;;;;;;;;;;5031998;28;20504;-66
2021/12/28 12:25:45;;;;;;;4.47;2.20;;;;;;;;;;5031602;28;20997;-61
2021/12/28 12:28:12;;;;;;;2.27;1.90;;;;;;;;;;5032624;28;20521;-59
2021/12/28 12:30:43;;;;;;;3.03;1.83;;;;;;;;;;5032616;28;20444;-64
2021/12/28 12:33:10;;;;;;;2.60;2.13;;;;;;;;;;5032768;28;20198;-64
2021/12/28 12:35:48;;;;;;;3.20;1.90;;;;;;;;;;5032633;28;20406;-64
2021/12/28 12:38:14;;;;;;;3.70;1.93;;;;;;;;;;5032118;28;20489;-64
2021/12/28 12:40:59;;;;;;;3.57;1.73;;;;;;;;;;5032679;28;20433;-64
2021/12/28 12:43:38;;;;;;;3.60;1.93;;;;;;;;;;5032555;28;20422;-67
2021/12/28 12:46:05;;;;;;;4.53;1.83;;;;;;;;;;5013740;28;20537;-68
2021/12/28 12:48:37;;;;;;;6.00;1.77;;;;;;;;;;5028845;28;20414;-66
2021/12/28 12:51:22;;;;;;;3.57;2.20;;;;;;;;;;5018101;28;20472;-65
2021/12/28 12:53:50;;;;;;;2.03;1.70;;;;;;;;;;5032218;28;20457;-63
2021/12/28 12:56:17;;;;;;;5.70;2.00;;;;;;;;;;5032912;28;20422;-64
2021/12/28 12:58:47;;;;;;;2.67;1.70;;;;;;;;;;5032105;28;20429;-63
2021/12/28 13:01:26;;;;;;;2.93;2.00;;;;;;;;;;5032695;28;20410;-65
2021/12/28 13:03:55;;;;;;;4.53;1.93;;;;;;;;;;5032366;28;20438;-65
2021/12/28 13:06:40;;;;;;;2.77;1.70;;;;;;;;;;5032459;28;20429;-64
2021/12/28 13:09:07;;;;;;;2.83;1.60;;;;;;;;;;5032404;28;20436;-65
2021/12/28 13:11:34;;;;;;;1.90;1.27;;;;;;;;;;5032419;28;20454;-66
2021/12/28 13:14:00;;;;;;;2.57;1.43;;;;;;;;;;5032099;28;20438;-66
2021/12/28 13:16:26;;;;;;;1.67;1.20;;;;;;;;;;5031721;28;20399;-66
2021/12/28 13:19:06;;;;;;;5.53;2.20;;;;;;;;;;5030633;28;20989;-67
2021/12/28 13:21:32;;;;;;;2.80;2.00;;;;;;;;;;5032561;28;20489;-68
2021/12/28 13:24:11;;;;;;;2.47;1.33;;;;;;;;;;5032917;28;20939;-67
2021/12/28 13:26:48;;;;;;;1.90;1.20;;;;;;;;;;5033456;28;20468;-67
2021/12/28 13:29:25;;;;;;;2.00;1.30;;;;;;;;;;5035195;28;20517;-66
2021/12/28 13:32:10;;;;;;;2.00;1.23;;;;;;;;;;5035323;28;20464;-66
2021/12/28 13:34:56;;;;;;;1.97;1.30;;;;;;;;;;5036599;28;20414;-68
2021/12/28 13:37:41;;;;;;;1.93;1.20;;;;;;;;;;5025360;28;20861;-66
2021/12/28 13:40:13;;;;;;;2.47;1.73;;;;;;;;;;5035715;28;20489;-68
2021/12/28 13:42:40;;;;;;;2.23;1.50;;;;;;;;;;5035777;28;20430;-68
2021/12/28 13:45:07;;;;;;;2.83;1.60;;;;;;;;;;5035793;28;20393;-67
2021/12/28 13:47:35;;;;;;;2.03;1.33;;;;;;;;;;5035337;28;20489;-67
2021/12/28 13:50:01;;;;;;;4.43;1.57;;;;;;;;;;5035658;28;20973;-66
2021/12/28 13:52:27;;;;;;;3.87;1.37;;;;;;;;;;5035024;28;20517;-67
2021/12/28 13:54:53;;;;;;;2.37;1.43;;;;;;;;;;5035712;28;20887;-67
2021/12/28 13:57:19;;;;;;;1.80;1.20;;;;;;;;;;5033848;28;20421;-67
2021/12/28 13:59:45;;;;;;;2.50;1.57;;;;;;;;;;5035899;28;20438;-67
2021/12/28 14:02:13;;;;;;;2.07;1.23;;;;;;;;;;5035089;28;20434;-67
2021/12/28 14:04:40;;;;;;;2.10;1.50;;;;;;;;;;5035436;28;20973;-67
2021/12/28 14:07:06;;;;;;;2.00;1.30;;;;;;;;;;5034772;28;20426;-66
2021/12/28 14:09:32;;;;;;;3.27;1.40;;;;;;;;;;5035672;28;20402;-67
2021/12/28 14:12:00;;;;;;;1.87;1.20;;;;;;;;;;5034069;28;20430;-65
2021/12/28 14:14:28;;;;;;;3.73;1.40;;;;;;;;;;5035272;28;20423;-66
2021/12/28 14:16:55;;;;;;;2.73;2.00;;;;;;;;;;5036134;28;20433;-61
2021/12/28 14:19:23;;;;;;;1.87;0.97;;;;;;;;;;5035261;28;20513;-60
2021/12/28 14:21:49;;;;;;;1.87;1.10;;;;;;;;;;5050443;28;20819;-62
2021/12/28 14:24:15;;;;;;;3.47;1.60;;;;;;;;;;5035282;28;20510;-64
2021/12/28 14:26:44;;;;;;;2.30;1.40;;;;;;;;;;5035294;28;20445;-64
2021/12/28 14:29:11;;;;;;;2.50;1.17;;;;;;;;;;5036347;28;20461;-61
2021/12/28 14:31:50;;;;;;;2.00;1.47;;;;;;;;;;5033659;28;20523;-66
2021/12/28 14:34:31;;;;;;;1.50;1.10;;;;;;;;;;5034381;28;20887;-64
2021/12/28 14:37:00;;;;;;;1.73;1.13;;;;;;;;;;5033864;28;20421;-61
2021/12/28 14:39:33;;;;;;;6.77;1.50;;;;;;;;;;5033223;28;20426;-65
2021/12/28 14:42:13;;;;;;;2.40;1.30;;;;;;;;;;5047408;28;20855;-65
2021/12/28 14:44:43;;;;;;;1.50;1.00;;;;;;;;;;5034981;28;20430;-65
2021/12/28 14:47:15;;;;;;;1.93;1.20;;;;;;;;;;5034023;28;20860;-64
2021/12/28 14:49:41;;;;;;;1.50;1.00;;;;;;;;;;5022685;28;20453;-63